createdAt,value
2022-09-06T00:00:32.998Z,2.75
2022-09-06T00:03:22.158Z,1.50
2022-09-06T00:06:13.262Z,1.95
2022-09-06T00:09:02.592Z,1.60
2022-09-06T00:11:53.374Z,1.67
2022-09-06T00:14:43.242Z,1.60
2022-09-06T00:17:32.976Z,1.30
2022-09-06T00:20:22.808Z,2.83
2022-09-06T00:23:12.200Z,2.03
2022-09-06T00:26:05.294Z,1.70
2022-09-06T00:28:55.599Z,1.73
2022-09-06T00:31:44.980Z,1.40
2022-09-06T00:34:34.501Z,1.42
2022-09-06T00:37:24.003Z,1.10
2022-09-06T00:40:14.116Z,1.42
2022-09-06T00:43:03.456Z,1.48
2022-09-06T00:45:55.401Z,1.10
2022-09-06T00:48:46.838Z,1.50
2022-09-06T00:51:37.085Z,1.55
2022-09-06T00:54:27.673Z,1.20
2022-09-06T00:57:18.551Z,2.08
2022-09-06T01:00:10.211Z,2.58
2022-09-06T01:03:01.266Z,2.10
2022-09-06T01:06:00.507Z,2.60
2022-09-06T01:09:03.600Z,2.60
2022-09-06T01:12:18.200Z,2.58
2022-09-06T01:15:23.098Z,2.30
2022-09-06T01:18:26.250Z,2.50
2022-09-06T01:21:25.575Z,2.10
2022-09-06T01:24:39.879Z,1.98
2022-09-06T01:28:05.656Z,2.20
2022-09-06T01:31:04.273Z,2.42
2022-09-06T01:34:01.341Z,1.92
2022-09-06T01:37:09.446Z,2.13
2022-09-06T01:39:59.928Z,2.10
2022-09-06T01:42:53.426Z,1.70
2022-09-06T01:45:56.232Z,1.65
2022-09-06T01:49:00.474Z,1.30
2022-09-06T01:52:03.828Z,1.77
2022-09-06T01:55:04.498Z,1.70
2022-09-06T01:58:09.597Z,1.80
2022-09-06T02:01:04.752Z,1.30
2022-09-06T02:04:02.263Z,1.60
2022-09-06T02:06:56.662Z,1.60
2022-09-06T02:09:50.434Z,1.48
2022-09-06T02:12:43.342Z,1.40
2022-09-06T02:15:36.415Z,1.40
2022-09-06T02:18:30.695Z,1.60
2022-09-06T02:21:25.115Z,1.40
2022-09-06T02:24:19.882Z,2.30
2022-09-06T02:27:09.843Z,1.67
2022-09-06T02:29:59.048Z,1.58
2022-09-06T02:32:57.128Z,1.67
2022-09-06T02:35:48.212Z,1.10
2022-09-06T02:38:41.172Z,1.45
2022-09-06T02:41:32.510Z,0.95
2022-09-06T02:44:22.128Z,1.30
2022-09-06T02:47:11.460Z,1.25
2022-09-06T02:50:02.371Z,1.27
2022-09-06T02:53:04.614Z,1.13
2022-09-06T02:55:53.661Z,1.50
2022-09-06T02:58:43.890Z,1.67
2022-09-06T03:01:32.744Z,2.00
2022-09-06T03:04:22.221Z,2.15
2022-09-06T03:07:12.995Z,1.80
2022-09-06T03:10:02.055Z,2.08
2022-09-06T03:12:51.710Z,1.83
2022-09-06T03:15:41.069Z,2.17
2022-09-06T03:18:32.204Z,2.35
2022-09-06T03:21:21.603Z,1.98
2022-09-06T03:24:11.963Z,1.70
2022-09-06T03:27:00.768Z,2.47
2022-09-06T03:29:49.845Z,2.03
2022-09-06T03:32:38.828Z,2.10
2022-09-06T03:35:28.475Z,2.17
2022-09-06T03:38:17.821Z,1.88
2022-09-06T03:41:08.193Z,2.03
2022-09-06T03:43:58.166Z,1.70
2022-09-06T03:46:47.747Z,1.90
2022-09-06T03:49:36.707Z,2.15
2022-09-06T03:52:26.127Z,1.88
2022-09-06T03:55:15.099Z,1.88
2022-09-06T03:58:05.621Z,2.42
2022-09-06T04:01:02.180Z,2.00
2022-09-06T04:03:51.545Z,2.17
2022-09-06T04:06:40.846Z,1.50
2022-09-06T04:09:29.736Z,1.90
2022-09-06T04:12:19.140Z,2.08
2022-09-06T04:15:11.543Z,1.85
2022-09-06T04:18:00.816Z,2.28
2022-09-06T04:20:50.975Z,2.67
2022-09-06T04:23:40.956Z,2.63
2022-09-06T04:26:30.191Z,3.00
2022-09-06T04:29:19.572Z,3.45
2022-09-06T04:32:10.497Z,3.65
2022-09-06T04:34:59.637Z,2.95
2022-09-06T04:37:48.940Z,2.80
2022-09-06T04:40:38.556Z,3.00
2022-09-06T04:43:28.515Z,2.38
2022-09-06T04:46:22.687Z,2.40
2022-09-06T04:49:13.971Z,2.30
2022-09-06T04:52:03.330Z,2.20
2022-09-06T04:54:52.440Z,2.17
2022-09-06T04:57:45.157Z,2.53
2022-09-06T05:00:39.013Z,2.20
2022-09-06T05:03:27.948Z,2.13
2022-09-06T05:06:22.340Z,2.15
2022-09-06T05:09:11.605Z,1.90
2022-09-06T05:12:00.520Z,2.00
2022-09-06T05:14:50.085Z,1.70
2022-09-06T05:17:39.657Z,2.13
2022-09-06T05:20:28.801Z,2.28
2022-09-06T05:23:19.366Z,2.42
2022-09-06T05:26:08.728Z,2.10
2022-09-06T05:28:58.513Z,3.13
2022-09-06T05:31:48.173Z,2.80
2022-09-06T05:34:37.719Z,2.90
2022-09-06T05:37:27.121Z,2.22
2022-09-06T05:40:17.739Z,1.80
2022-09-06T05:43:06.540Z,2.13
2022-09-06T05:45:56.696Z,2.33
2022-09-06T05:48:46.161Z,2.78
2022-09-06T05:51:35.440Z,2.08
2022-09-06T05:54:24.797Z,1.63
2022-09-06T05:57:15.774Z,1.55
2022-09-06T06:00:06.149Z,1.70
2022-09-06T06:02:54.952Z,1.60
2022-09-06T06:05:48.690Z,1.92
2022-09-06T06:08:38.258Z,1.77
2022-09-06T06:11:28.420Z,1.63
2022-09-06T06:14:18.957Z,1.48
2022-09-06T06:17:08.494Z,1.90
2022-09-06T06:19:58.580Z,1.90
2022-09-06T06:22:47.448Z,1.75
2022-09-06T06:25:36.816Z,1.95
2022-09-06T06:28:26.021Z,1.70
2022-09-06T06:31:16.881Z,1.70
2022-09-06T06:34:06.576Z,1.60
2022-09-06T06:36:55.666Z,1.98
2022-09-06T06:39:45.288Z,1.70
2022-09-06T06:42:34.842Z,1.55
2022-09-06T06:45:24.533Z,1.60
2022-09-06T06:48:15.025Z,1.00
2022-09-06T06:51:04.121Z,2.38
2022-09-06T06:53:56.821Z,1.40
2022-09-06T06:56:46.679Z,1.65
2022-09-06T06:59:35.710Z,1.67
2022-09-06T07:02:25.039Z,1.15
2022-09-06T07:08:25.174Z,1.30
2022-09-06T07:11:15.768Z,1.98
2022-09-06T07:14:05.174Z,1.48
2022-09-06T07:16:59.736Z,1.30
2022-09-06T07:26:15.901Z,1.42
2022-09-06T07:29:07.361Z,2.65
2022-09-06T07:32:13.406Z,1.83
2022-09-06T07:35:02.530Z,1.50
2022-09-06T07:37:55.036Z,1.70
2022-09-06T07:40:45.710Z,1.42
2022-09-06T07:43:35.715Z,1.58
2022-09-06T07:46:25.028Z,1.30
2022-09-06T07:49:14.457Z,1.60
2022-09-06T07:55:13.453Z,1.85
2022-09-06T07:58:04.726Z,1.60
2022-09-06T08:00:53.980Z,1.88
2022-09-06T08:03:43.139Z,1.50
2022-09-06T08:09:44.537Z,1.60
2022-09-06T08:12:33.602Z,1.88
2022-09-06T08:15:24.211Z,1.40
2022-09-06T08:18:13.793Z,1.63
2022-09-06T08:21:12.699Z,2.00
2022-09-06T08:24:03.794Z,1.38
2022-09-06T08:26:52.902Z,1.58
2022-09-06T08:29:41.884Z,1.45
2022-09-06T08:32:34.708Z,1.23
2022-09-06T08:35:24.191Z,1.52
2022-09-06T08:38:13.445Z,1.20
2022-09-06T08:41:11.812Z,1.85
2022-09-06T08:47:16.230Z,2.38
2022-09-06T08:50:09.296Z,1.55
2022-09-06T08:53:16.687Z,1.92
2022-09-06T08:56:15.043Z,2.13
2022-09-06T08:59:06.917Z,1.85
2022-09-06T09:02:05.655Z,1.45
2022-09-06T09:04:58.667Z,1.50
2022-09-06T09:07:53.720Z,1.77
2022-09-06T09:10:46.879Z,1.70
2022-09-06T09:13:41.623Z,1.83
2022-09-06T09:16:30.772Z,2.72
2022-09-06T09:19:20.346Z,2.80
2022-09-06T09:22:09.008Z,2.15
2022-09-06T09:25:00.899Z,2.33
2022-09-06T09:27:57.908Z,2.30
2022-09-06T09:30:49.594Z,2.35
2022-09-06T09:33:40.068Z,2.03
2022-09-06T09:36:29.302Z,1.85
2022-09-06T09:39:19.049Z,2.13
2022-09-06T09:42:10.005Z,2.13
2022-09-06T09:44:58.978Z,1.80
2022-09-06T09:47:48.678Z,2.30
2022-09-06T09:50:38.166Z,2.10
2022-09-06T09:53:27.551Z,2.53
2022-09-06T09:56:17.198Z,2.42
2022-09-06T09:59:22.575Z,2.10
2022-09-06T10:02:21.240Z,1.60
2022-09-06T10:05:21.174Z,2.10
2022-09-06T10:08:13.493Z,1.92
2022-09-06T10:11:03.108Z,2.58
2022-09-06T10:13:53.297Z,2.00
2022-09-06T10:16:47.392Z,2.10
2022-09-06T10:19:44.545Z,1.90
2022-09-06T10:22:37.051Z,1.70
2022-09-06T10:25:46.389Z,2.30
2022-09-06T10:28:41.923Z,2.38
2022-09-06T10:31:45.850Z,2.70
2022-09-06T10:34:59.470Z,2.40
2022-09-06T10:38:04.752Z,2.17
2022-09-06T10:41:07.932Z,2.20
2022-09-06T10:44:04.713Z,1.77
2022-09-06T10:47:01.478Z,2.10
2022-09-06T10:49:55.948Z,3.20
2022-09-06T10:52:49.262Z,2.30
2022-09-06T10:55:44.318Z,2.72
2022-09-06T11:02:01.696Z,4.10
2022-09-06T11:11:17.480Z,1.95
2022-09-06T11:14:10.019Z,4.30
2022-09-06T11:17:03.400Z,2.35
2022-09-06T11:20:04.276Z,2.08
2022-09-06T11:23:31.179Z,2.75
2022-09-06T11:26:42.158Z,2.65
2022-09-06T11:29:33.545Z,3.03
2022-09-06T11:32:36.410Z,2.92
2022-09-06T11:35:32.156Z,3.03
2022-09-06T11:38:28.342Z,2.65
2022-09-06T11:41:19.732Z,2.13
2022-09-06T11:44:10.041Z,2.28
2022-09-06T11:47:00.951Z,4.35
2022-09-06T11:49:50.284Z,2.95
2022-09-06T11:53:03.290Z,3.03
2022-09-06T11:56:11.175Z,2.65
2022-09-06T11:59:06.113Z,2.75
2022-09-06T12:02:03.883Z,2.75
2022-09-06T12:05:13.943Z,2.10
2022-09-06T12:08:33.578Z,1.63
2022-09-06T12:11:35.864Z,2.05
2022-09-06T12:14:32.401Z,2.38
2022-09-06T12:17:23.052Z,3.20
2022-09-06T12:20:12.443Z,2.17
2022-09-06T12:23:01.449Z,2.08
2022-09-06T12:26:01.273Z,2.35
2022-09-06T12:28:52.633Z,1.80
2022-09-06T12:31:44.209Z,2.30
2022-09-06T12:34:36.699Z,2.20
2022-09-06T12:37:35.731Z,2.13
2022-09-06T12:40:26.746Z,2.00
2022-09-06T12:43:19.164Z,2.22
2022-09-06T12:46:09.657Z,2.17
2022-09-06T12:49:03.287Z,3.00
2022-09-06T12:51:52.421Z,1.77
2022-09-06T12:54:47.043Z,1.92
2022-09-06T12:57:35.772Z,2.08
2022-09-06T13:00:29.060Z,2.15
2022-09-06T13:03:28.276Z,2.45
2022-09-06T13:06:26.048Z,1.90
2022-09-06T13:09:20.971Z,1.98
2022-09-06T13:12:16.533Z,1.55
2022-09-06T13:15:11.937Z,1.73
2022-09-06T13:25:50.244Z,1.90
2022-09-06T13:28:41.487Z,2.05
2022-09-06T13:31:32.556Z,1.80
2022-09-06T13:34:23.579Z,1.83
2022-09-06T13:37:13.333Z,2.03
2022-09-06T13:40:05.616Z,1.73
2022-09-06T13:43:02.499Z,1.80
2022-09-06T13:46:06.276Z,1.80
2022-09-06T13:48:55.876Z,1.30
2022-09-06T13:51:45.382Z,1.90
2022-09-06T13:54:38.883Z,1.80
2022-09-06T13:57:28.297Z,1.73
2022-09-06T14:00:17.746Z,1.83
2022-09-06T14:03:08.439Z,1.70
2022-09-06T14:05:57.906Z,2.00
2022-09-06T14:09:06.457Z,1.42
2022-09-06T14:11:56.223Z,1.80
2022-09-06T14:14:45.989Z,1.27
2022-09-06T14:17:37.736Z,1.45
2022-09-06T14:20:28.397Z,2.08
2022-09-06T14:23:17.580Z,1.63
2022-09-06T14:26:07.684Z,1.80
2022-09-06T14:28:58.386Z,1.60
2022-09-06T14:31:48.535Z,1.48
2022-09-06T14:34:37.724Z,1.90
2022-09-06T14:37:28.362Z,1.52
2022-09-06T14:40:19.629Z,1.58
2022-09-06T14:43:09.275Z,1.40
2022-09-06T14:46:04.431Z,1.75
2022-09-06T14:48:58.919Z,1.42
2022-09-06T14:51:48.041Z,1.35
2022-09-06T14:54:38.684Z,1.45
2022-09-06T14:57:28.779Z,1.50
2022-09-06T15:00:18.973Z,1.40
2022-09-06T15:03:07.982Z,1.50
2022-09-06T15:05:57.846Z,1.50
2022-09-06T15:08:48.184Z,1.50
2022-09-06T15:11:40.763Z,1.40
2022-09-06T15:14:30.965Z,1.33
2022-09-06T15:17:20.056Z,1.30
2022-09-06T15:20:09.575Z,1.75
2022-09-06T15:23:15.195Z,1.55
2022-09-06T15:26:09.730Z,1.67
2022-09-06T15:29:00.451Z,1.20
2022-09-06T15:31:50.745Z,1.05
2022-09-06T15:34:39.933Z,1.60
2022-09-06T15:37:29.189Z,1.40
2022-09-06T15:40:21.801Z,1.67
2022-09-06T15:43:10.857Z,1.35
2022-09-06T15:46:02.504Z,1.20
2022-09-06T15:48:53.998Z,1.38
2022-09-06T15:51:43.609Z,1.48
2022-09-06T15:54:52.298Z,1.63
2022-09-06T15:57:41.497Z,1.20
2022-09-06T16:00:32.364Z,1.30
2022-09-06T16:03:23.038Z,1.23
2022-09-06T16:06:28.535Z,1.80
2022-09-06T16:09:18.006Z,1.30
2022-09-06T16:12:07.517Z,1.40
2022-09-06T16:14:56.919Z,1.70
2022-09-06T16:17:46.244Z,1.40
2022-09-06T16:20:40.231Z,1.77
2022-09-06T16:23:29.590Z,1.90
2022-09-06T16:26:21.540Z,1.80
2022-09-06T16:29:12.986Z,1.77
2022-09-06T16:32:01.754Z,1.50
2022-09-06T16:34:51.240Z,1.85
2022-09-06T16:37:41.946Z,1.55
2022-09-06T16:40:31.291Z,1.70
2022-09-06T16:43:20.316Z,1.75
2022-09-06T16:46:10.299Z,1.80
2022-09-06T16:49:01.418Z,1.58
2022-09-06T16:51:51.334Z,1.88
2022-09-06T16:54:42.512Z,1.52
2022-09-06T16:57:31.416Z,2.08
2022-09-06T17:00:20.526Z,1.65
2022-09-06T17:03:09.323Z,1.83
2022-09-06T17:05:58.436Z,1.55
2022-09-06T17:08:48.041Z,1.50
2022-09-06T17:11:40.233Z,1.73
2022-09-06T17:14:30.425Z,1.42
2022-09-06T17:17:19.862Z,1.58
2022-09-06T17:20:09.943Z,1.63
2022-09-06T17:22:58.982Z,1.10
2022-09-06T17:25:47.896Z,1.60
2022-09-06T17:28:40.894Z,2.05
2022-09-06T17:31:30.612Z,1.52
2022-09-06T17:34:19.589Z,1.65
2022-09-06T17:37:09.475Z,1.58
2022-09-06T17:39:58.335Z,1.60
2022-09-06T17:42:47.289Z,1.33
2022-09-06T17:45:40.804Z,1.60
2022-09-06T17:48:30.417Z,2.47
2022-09-06T17:51:20.480Z,2.15
2022-09-06T17:54:10.534Z,2.40
2022-09-06T17:56:59.715Z,2.70
2022-09-06T17:59:49.233Z,2.80
2022-09-06T18:02:40.368Z,2.67
2022-09-06T18:05:30.053Z,2.67
2022-09-06T18:08:21.673Z,2.30
2022-09-06T18:11:12.085Z,2.40
2022-09-06T18:14:04.391Z,2.08
2022-09-06T18:16:54.018Z,1.52
2022-09-06T18:19:45.063Z,1.88
2022-09-06T18:22:34.142Z,1.90
2022-09-06T18:25:23.254Z,2.22
2022-09-06T18:28:12.557Z,1.95
2022-09-06T18:31:02.417Z,2.25
2022-09-06T18:33:52.099Z,1.92
2022-09-06T18:36:42.666Z,2.22
2022-09-06T18:39:31.755Z,2.00
2022-09-06T18:42:21.254Z,1.80
2022-09-06T18:45:11.503Z,2.55
2022-09-06T18:48:01.081Z,2.03
2022-09-06T18:50:49.946Z,3.10
2022-09-06T18:53:44.520Z,2.40
2022-09-06T18:56:34.427Z,2.35
2022-09-06T18:59:23.559Z,2.67
2022-09-06T19:02:12.457Z,2.33
2022-09-06T19:05:01.904Z,2.50
2022-09-06T19:07:51.177Z,2.83
2022-09-06T19:10:42.043Z,2.22
2022-09-06T19:13:32.723Z,2.38
2022-09-06T19:16:24.024Z,2.70
2022-09-06T19:19:13.763Z,2.38
2022-09-06T19:22:03.126Z,2.72
2022-09-06T19:24:52.414Z,2.58
2022-09-06T19:27:48.541Z,2.42
2022-09-06T19:30:38.013Z,2.40
2022-09-06T19:33:27.443Z,2.58
2022-09-06T19:36:17.887Z,1.88
2022-09-06T19:39:09.265Z,1.77
2022-09-06T19:41:59.090Z,1.92
2022-09-06T19:44:49.928Z,1.67
2022-09-06T19:47:39.775Z,1.40
2022-09-06T19:50:28.833Z,1.30
2022-09-06T19:53:18.004Z,1.08
2022-09-06T19:56:12.410Z,1.50
2022-09-06T19:59:03.224Z,1.90
2022-09-06T20:01:54.215Z,1.38
2022-09-06T20:04:43.327Z,1.23
2022-09-06T20:07:33.072Z,1.05
2022-09-06T20:10:22.035Z,1.25
2022-09-06T20:13:11.466Z,1.45
2022-09-06T20:16:01.233Z,1.63
2022-09-06T20:18:52.405Z,1.25
2022-09-06T20:21:41.601Z,1.38
2022-09-06T20:24:30.503Z,1.15
2022-09-06T20:27:19.917Z,1.38
2022-09-06T20:30:09.629Z,1.30
2022-09-06T20:32:59.463Z,1.40
2022-09-06T20:36:03.109Z,1.30
2022-09-06T20:38:52.916Z,1.45
2022-09-06T20:41:43.112Z,1.40
2022-09-06T20:44:32.167Z,2.20
2022-09-06T20:47:21.879Z,1.50
2022-09-06T20:50:12.364Z,1.40
2022-09-06T20:53:02.703Z,1.42
2022-09-06T20:55:58.063Z,1.52
2022-09-06T20:58:50.240Z,1.45
2022-09-06T21:01:41.822Z,1.55
2022-09-06T21:04:31.458Z,1.38
2022-09-06T21:07:20.082Z,1.30
2022-09-06T21:10:11.986Z,1.67
2022-09-06T21:13:01.217Z,1.67
2022-09-06T21:15:50.334Z,1.55
2022-09-06T21:18:39.263Z,1.75
2022-09-06T21:21:29.803Z,1.65
2022-09-06T21:24:19.186Z,2.05
2022-09-06T21:27:12.359Z,1.80
2022-09-06T21:30:01.424Z,1.80
2022-09-06T21:32:50.759Z,1.85
2022-09-06T21:35:40.291Z,2.05
2022-09-06T21:38:29.977Z,1.80
2022-09-06T21:41:20.858Z,2.88
2022-09-06T21:44:12.686Z,2.13
2022-09-06T21:47:02.800Z,2.20
2022-09-06T21:49:52.032Z,2.03
2022-09-06T21:52:41.095Z,2.30
2022-09-06T21:55:32.866Z,2.10
2022-09-06T21:58:22.140Z,2.33
2022-09-06T22:01:12.909Z,1.90
2022-09-06T22:04:02.625Z,1.95
2022-09-06T22:06:52.176Z,1.98
2022-09-06T22:09:41.561Z,1.92
2022-09-06T22:12:30.778Z,1.60
2022-09-06T22:15:21.867Z,1.80
2022-09-06T22:18:13.654Z,1.63
2022-09-06T22:21:03.734Z,1.85
2022-09-06T22:23:53.406Z,2.03
2022-09-06T22:26:43.442Z,1.60
2022-09-06T22:29:33.099Z,1.88
2022-09-06T22:32:24.302Z,1.73
2022-09-06T22:35:14.952Z,2.03
2022-09-06T22:38:04.670Z,1.73
2022-09-06T22:40:54.253Z,1.63
2022-09-06T22:43:44.196Z,1.50
2022-09-06T22:46:34.480Z,1.83
2022-09-06T22:49:23.727Z,1.98
2022-09-06T22:52:14.604Z,1.48
2022-09-06T22:55:04.561Z,2.08
2022-09-06T22:57:53.951Z,2.25
2022-09-06T23:00:43.093Z,1.67
2022-09-06T23:03:32.836Z,1.60
2022-09-06T23:06:21.913Z,1.73
2022-09-06T23:09:12.612Z,1.63
2022-09-06T23:12:01.826Z,1.98
2022-09-06T23:14:51.373Z,2.25
2022-09-06T23:17:40.989Z,2.00
2022-09-06T23:20:30.071Z,1.60
2022-09-06T23:23:19.295Z,1.63
2022-09-06T23:26:11.672Z,1.80
2022-09-06T23:29:01.538Z,2.00
2022-09-06T23:31:50.844Z,1.92
2022-09-06T23:34:40.536Z,1.85
2022-09-06T23:37:29.900Z,2.10
2022-09-06T23:40:19.069Z,1.85
2022-09-06T23:43:09.640Z,2.55
2022-09-06T23:45:59.127Z,1.90
2022-09-06T23:48:49.062Z,2.03
2022-09-06T23:51:37.939Z,2.00
2022-09-06T23:54:27.057Z,1.77
2022-09-06T23:57:16.322Z,2.20
